• Join FlightAware (Why Join?)
  • Login
  • US Flag 
11:58PM EDT


 

Airport Tracker/Info


-or-


 

Live Flight TrackerFlight Track Log ✈ SWA1154 ✈ 15-May-2012 ✈ KMDW - KRSW

Flight Track Log - Related Links

Times and Time Zones

All times are in EDT time to prevent confusion due to time zone crossing. See the SWA1154 flight status page for this flight to view local times or setup timezone preferences in your user account.

Time Position Orientation Groundspeed Altitude Reporting Facility
EDT Latitude Longitude Course Direction KTS MPH feet Rate Location/Type
10:21AM 41.8000 -87.8000 191° South 188 216 2,800  Level Chicago TRACON
10:24AM 41.6236 -87.8444 186° South 263 303 7,500 2,220 Climbing Chicago Center
10:25AM 41.5464 -87.8544 184° South 278 320 10,600 2,280 Climbing Chicago Center
10:26AM 41.4611 -87.8619 157° South 291 335 12,100 2,100 Climbing Chicago Center
10:27AM 41.3686 -87.8089 162° South 348 400 14,800 1,860 Climbing Chicago Center
10:28AM 41.2658 -87.7642 171° South 362 417 15,900 660 Climbing Chicago Center
10:29AM 41.1614 -87.7419 171° South 378 435 16,200 1,680 Climbing Chicago Center
10:30AM 41.0569 -87.7197 170° South 383 441 19,300 2,820 Climbing Chicago Center
10:31AM 40.9461 -87.6950 169° South 393 452 21,900 2,520 Climbing Chicago Center
10:32AM 40.8350 -87.6678 170° South 403 464 24,400 2,160 Climbing Chicago Center
10:33AM 40.7158 -87.6406 170° South 415 478 26,300 1,800 Climbing Chicago Center
10:34AM 40.5944 -87.6136 171° South 435 501 28,000 1,800 Climbing Chicago Center
10:35AM 40.4692 -87.5869 176° South 448 516 30,000 2,040 Climbing Chicago Center
10:36AM 40.3375 -87.5739 181° South 458 527 32,100 1,920 Climbing Chicago Center
10:37AM 40.2125 -87.5772 172° South 458 527 33,900 1,620 Climbing Chicago Center
10:38AM 40.0733 -87.5506 170° South 468 539 35,800 1,380 Climbing Indianapolis Center
10:39AM 39.9469 -87.5217 170° South 463 533 37,000 600 Climbing Indianapolis Center
10:40AM 39.8478 -87.5000 170° South 456 525 37,000 300 Level Indianapolis Center
10:41AM 39.6986 -87.4672 169° South 456 525 37,600 840 Climbing Indianapolis Center
10:42AM 39.5808 -87.4364 170° South 450 518 38,700 660 Climbing Indianapolis Center
10:43AM 39.4544 -87.4081 170° South 445 512 39,000 120 Climbing Indianapolis Center
10:44AM 39.3325 -87.3800 170° South 445 512 39,000  Level Indianapolis Center
10:45AM 39.2103 -87.3519 170° South 445 512 39,000  Level Indianapolis Center
10:46AM 39.0922 -87.3242 170° South 442 509 39,000  Level Indianapolis Center
10:47AM 38.9681 -87.2964 170° South 442 509 39,000  Level Indianapolis Center
10:48AM 38.8417 -87.2686 170° South 454 522 39,000  Level Indianapolis Center
10:49AM 38.7194 -87.2408 170° South 454 522 39,000  Level Indianapolis Center
10:50AM 38.5994 -87.2136 170° South 454 522 39,000  Level Indianapolis Center
10:51AM 38.4750 -87.1861 168° South 454 522 39,000  Level Indianapolis Center
10:52AM 38.3303 -87.1472 172° South 462 532 39,000  Level Indianapolis Center
10:53AM 38.2119 -87.1256 171° South 462 532 39,000  Level Indianapolis Center
10:54AM 38.1042 -87.1044 170° South 451 519 39,000  Level Indianapolis Center
10:55AM 37.9819 -87.0775 170° South 445 512 39,000  Level Indianapolis Center
10:57AM 37.6950 -87.0158 171° South 449 517 39,000  Level Memphis Center
10:58AM 37.5883 -86.9942 170° South 444 511 39,000  Level Memphis Center
10:59AM 37.4689 -86.9681 169° South 444 511 39,000  Level Memphis Center
11:00AM 37.3472 -86.9392 171° South 444 511 39,000  Level Memphis Center
11:01AM 37.2069 -86.9114 163° South 439 505 39,000  Level Memphis Center
11:02AM 37.0911 -86.8669 161° South 432 497 39,000  Level Memphis Center
11:03AM 36.9772 -86.8175 162° South 442 509 39,000  Level Memphis Center
11:04AM 36.8592 -86.7683 162° South 448 516 39,000  Level Memphis Center
11:05AM 36.7431 -86.7217 161° South 448 516 39,000  Level Memphis Center
11:06AM 36.6164 -86.6678 161° South 448 516 39,000  Level Memphis Center
11:07AM 36.4983 -86.6164 162° South 443 510 39,000  Level Memphis Center
11:08AM 36.3822 -86.5703 163° South 449 517 39,000  Level Memphis Center
11:09AM 36.2639 -86.5244 162° South 449 517 39,000  Level Memphis Center
11:10AM 36.1458 -86.4783 162° South 449 517 39,000  Level Memphis Center
11:11AM 36.0425 -86.4372 161° South 449 517 39,000  Level Memphis Center
11:12AM 35.9261 -86.3889 162° South 449 517 39,000  Level Memphis Center
11:15AM 35.6686 -86.2856 163° South 437 503 39,000  Level Atlanta Center
11:16AM 35.5547 -86.2417 163° South 437 503 39,000  Level Atlanta Center
11:17AM 35.4406 -86.1978 161° South 437 503 39,000  Level Atlanta Center
11:18AM 35.3247 -86.1489 162° South 437 503 39,000  Level Atlanta Center
11:19AM 35.2106 -86.1028 164° South 432 497 39,000  Level Atlanta Center
11:20AM 35.0967 -86.0619 162° South 432 497 39,000  Level Atlanta Center
11:21AM 34.9806 -86.0161 163° South 437 503 39,000  Level Atlanta Center
11:22AM 34.8644 -85.9728 162° South 437 503 39,000  Level Atlanta Center
11:23AM 34.7522 -85.9272 163° South 437 503 39,000  Level Atlanta Center
11:24AM 34.6383 -85.8842 161° South 437 503 39,000  Level Atlanta Center
11:25AM 34.5219 -85.8364 163° South 437 503 39,000  Level Atlanta Center
11:26AM 34.4100 -85.7961 162° South 437 503 39,000  Level Atlanta Center
11:27AM 34.3083 -85.7564 163° South 431 496 39,000  Level Atlanta Center
11:28AM 34.1919 -85.7139 161° South 431 496 39,000  Level Atlanta Center
11:29AM 34.0819 -85.6692 162° South 431 496 39,000  Level Atlanta Center
11:30AM 33.9678 -85.6242 163° South 431 496 39,000  Level Atlanta Center
11:31AM 33.8514 -85.5822 163° South 436 502 39,000  Level Atlanta Center
11:32AM 33.7392 -85.5403 163° South 431 496 39,000  Level Atlanta Center
11:33AM 33.6208 -85.4981 162° South 436 502 39,000  Level Atlanta Center
11:34AM 33.5064 -85.4539 162° South 429 494 39,000  Level Atlanta Center
11:35AM 33.3922 -85.4097 163° South 429 494 39,000  Level Atlanta Center
11:36AM 33.2694 -85.3656 162° South 437 503 39,000  Level Atlanta Center
11:37AM 33.1550 -85.3217 160° South 432 497 39,000  Level Atlanta Center
11:38AM 33.0222 -85.2653 162° South 437 503 39,000  Level Atlanta Center
11:39AM 32.9056 -85.2214 163° South 431 496 39,000  Level Atlanta Center
11:40AM 32.7933 -85.1806 162° South 431 496 39,000  Level Atlanta Center
11:41AM 32.6894 -85.1397 163° South 431 496 39,000  Level Atlanta Center
11:42AM 32.5792 -85.0989 163° South 439 505 39,000 -540 Level Atlanta Center
11:43AM 32.4606 -85.0556 164° South 439 505 38,000 -1,500 Descending Atlanta Center
11:44AM 32.3417 -85.0150 165° South 439 505 36,100 -1,980 Descending Atlanta Center
11:45AM 32.2003 -84.9692 162° South 451 519 34,100 -1,920 Descending Atlanta Center
11:46AM 32.0794 -84.9236 160° South 462 532 32,300 -1,620 Descending Atlanta Center
11:47AM 31.9736 -84.8789 164° South 455 524 31,000 -720 Descending Jacksonville Center
11:48AM 31.8697 -84.8447 163° South 449 517 31,000  Level Jacksonville Center
11:49AM 31.7472 -84.8006 163° South 449 517 31,000 -120 Level Jacksonville Center
11:50AM 31.6286 -84.7592 163° South 449 517 30,800 -900 Descending Jacksonville Center
11:51AM 31.5083 -84.7153 162° South 449 517 29,300 -1,500 Descending Jacksonville Center
11:52AM 31.3919 -84.6717 164° South 449 517 27,800 -1,200 Descending Jacksonville Center
11:53AM 31.2778 -84.6331 163° South 438 504 27,000 -420 Descending Jacksonville Center
11:54AM 31.1656 -84.5922 163° South 432 497 27,000  Level Jacksonville Center
11:55AM 31.0533 -84.5514 162° South 432 497 27,000  Level Jacksonville Center
11:56AM 30.9389 -84.5081 164° South 432 497 27,000  Level Jacksonville Center
11:57AM 30.8247 -84.4700 163° South 432 497 27,000  Level Jacksonville Center
11:58AM 30.7125 -84.4294 164° South 432 497 27,000  Level Jacksonville Center
11:59AM 30.5981 -84.3914 154° Southeast 427 491 27,000  Level Jacksonville Center
12:00PM 30.4797 -84.3244 150° Southeast 427 491 27,000  Level Jacksonville Center
12:01PM 30.3783 -84.2578 150° Southeast 422 486 27,000  Level Jacksonville Center
12:02PM 30.2744 -84.1889 151° Southeast 422 486 27,000  Level Jacksonville Center
12:03PM 30.1708 -84.1228 151° Southeast 427 491 27,000  Level Jacksonville Center
12:04PM 30.0692 -84.0567 151° Southeast 427 491 27,000  Level Jacksonville Center
12:05PM 29.9653 -83.9906 151° Southeast 427 491 27,000  Level Jacksonville Center
12:06PM 29.8636 -83.9247 150° Southeast 422 486 27,000  Level Jacksonville Center
12:07PM 29.7597 -83.8567 150° Southeast 422 486 27,000  Level Jacksonville Center
12:08PM 29.6558 -83.7889 152° Southeast 422 486 27,000  Level Jacksonville Center
12:09PM 29.5539 -83.7258 151° Southeast 422 486 27,000  Level Jacksonville Center
12:10PM 29.4519 -83.6606 150° Southeast 422 486 27,000  Level Jacksonville Center
12:11PM 29.3481 -83.5931 151° Southeast 422 486 27,000  Level Jacksonville Center
12:12PM 29.2461 -83.5281 150° Southeast 422 486 27,000  Level Jacksonville Center
12:13PM 29.1442 -83.4608 151° Southeast 422 486 27,000  Level Jacksonville Center
12:14PM 29.0422 -83.3961 152° Southeast 417 480 27,000  Level Jacksonville Center
12:15PM 28.9381 -83.3339 162° South 417 480 27,000  Level Jacksonville Center
12:16PM 28.8297 -83.2931 162° South 412 474 27,000  Level Jacksonville Center
12:18PM 28.6328 -83.2217 163° South 409 471 27,000  Level Miami Center
12:19PM 28.5181 -83.1822 162° South 416 479 27,000  Level Miami Center
12:20PM 28.4092 -83.1431 162° South 421 484 27,000  Level Miami Center
12:21PM 28.2983 -83.1014 162° South 421 484 27,000  Level Miami Center
12:22PM 28.1875 -83.0600 162° South 416 479 27,000  Level Miami Center
12:23PM 28.0808 -83.0211 159° South 411 473 27,000  Level Miami Center
12:24PM 27.9722 -82.9731 158° South 417 480 27,000 -180 Level Miami Center
12:25PM 27.8658 -82.9250 156° South 417 480 26,700 -720 Descending Miami Center
12:26PM 27.7658 -82.8750 159° South 417 480 25,600 -1,080 Descending Miami Center
12:27PM 27.6592 -82.8297 158° South 405 466 24,600 -960 Descending Miami Center
12:28PM 27.5669 -82.7875 159° South 402 463 23,700 -960 Descending Miami Center
12:29PM 27.4686 -82.7450 158° South 394 453 22,700 -1,080 Descending Miami Center
12:30PM 27.3558 -82.6947 155° Southeast 388 447 21,600 -1,080 Descending Miami Center
12:31PM 27.2619 -82.6456 147° Southeast 380 437 20,600 -1,200 Descending Miami Center
12:32PM 27.1789 -82.5856 144° Southeast 385 443 19,300 -1,320 Descending Miami Center
12:33PM 27.0958 -82.5183 146° Southeast 376 433 18,000 -1,560 Descending Miami Center
12:34PM 27.0108 -82.4536 145° Southeast 376 433 16,200 -1,920 Descending Miami Center
12:35PM 26.9297 -82.3892 145° Southeast 371 427 14,200 -1,920 Descending Miami Center
12:36PM 26.8528 -82.3297 143° Southeast 360 414 12,400 -1,860 Descending Miami Center
12:37PM 26.7758 -82.2658 146° Southeast 355 409 10,500 -1,440 Descending Miami Center
12:38PM 26.7067 -82.2139 144° Southeast 333 383 9,600 -1,200 Descending Miami Center
12:39PM 26.6397 -82.1597 144° Southeast 314 361 8,200 -1,440 Descending Miami Center
12:40PM 26.5769 -82.1081 144° Southeast 295 339 6,800 -1,440 Descending Miami Center
12:41PM 26.5142 -82.0567 137° Southeast 290 334 5,400 -600 Descending Miami Center
12:43PM 26.4053 -81.9450 54° Northeast 273 314 5,000 -240 Descending Miami Center
12:50PM 26.5333 -81.7500 302° West  Level FlightAware Approximate
12:51PM 26.5927 -81.8583 121° Southeast  Level Estimated
12:52PM 26.5333 -81.7500 302° West  Level FlightAware Approximate
12:53PM 26.5927 -81.8583 121° Southeast  Level Estimated
12:54PM 26.5333 -81.7500 302° West  Level FlightAware Approximate
12:55PM 26.5927 -81.8583 121° Southeast  Level Estimated
12:56PM 26.5333 -81.7500 302° West  Level FlightAware Approximate
12:57PM 26.5927 -81.8583 302° West  Level Estimated